createdAt,value
2019-01-05T00:01:45.858Z,101159.22
2019-01-05T00:04:30.991Z,101162.11
2019-01-05T00:07:10.223Z,101165.33
2019-01-05T00:10:03.347Z,101159.91
2019-01-05T00:12:49.680Z,101156.12
2019-01-05T00:15:43.560Z,101145.65
2019-01-05T00:18:34.391Z,101143.26
2019-01-05T00:21:31.301Z,101135.80
2019-01-05T00:24:21.930Z,101142.38
2019-01-05T00:27:08.111Z,101135.89
2019-01-05T00:29:58.883Z,101131.54
2019-01-05T00:32:59.056Z,101132.45
2019-01-05T00:36:13.146Z,101125.92
2019-01-05T00:39:08.895Z,101124.79
2019-01-05T00:42:01.728Z,101119.24
2019-01-05T00:44:49.666Z,101121.75
2019-01-05T00:47:35.750Z,101116.92
2019-01-05T00:50:29.814Z,101112.20
2019-01-05T00:53:17.727Z,101111.91
2019-01-05T00:56:09.298Z,101101.23
2019-01-05T00:58:59.994Z,101100.92
2019-01-05T01:01:50.504Z,101093.22
2019-01-05T01:04:38.043Z,101104.75
2019-01-05T01:07:25.218Z,101091.86
2019-01-05T01:10:03.396Z,101088.89
2019-01-05T01:12:49.482Z,101086.74
2019-01-05T01:15:35.461Z,101082.56
2019-01-05T01:18:37.988Z,101086.52
2019-01-05T01:21:23.862Z,101081.03
2019-01-05T01:24:14.844Z,101080.55
2019-01-05T01:27:08.148Z,101076.22
2019-01-05T01:29:58.486Z,101070.21
2019-01-05T01:32:45.288Z,101076.04
2019-01-05T01:35:38.189Z,101061.38
2019-01-05T01:38:53.518Z,101058.37
2019-01-05T01:41:57.509Z,101059.48
2019-01-05T01:45:03.014Z,101051.28
2019-01-05T01:47:58.317Z,101052.84
2019-01-05T01:50:51.426Z,101045.67
2019-01-05T01:53:37.925Z,101037.47
2019-01-05T01:56:48.391Z,101034.31
2019-01-05T02:00:06.129Z,101018.45
2019-01-05T02:02:55.445Z,101007.91
2019-01-05T02:05:42.747Z,101008.74
2019-01-05T02:08:32.710Z,100995.75
2019-01-05T02:11:30.012Z,100980.70
2019-01-05T02:14:18.437Z,100973.52
2019-01-05T02:17:32.003Z,100970.50
2019-01-05T02:20:34.065Z,100971.35
2019-01-05T02:24:21.482Z,100958.31
2019-01-05T02:27:57.729Z,100958.13
2019-01-05T02:31:28.281Z,100949.79
2019-01-05T02:34:53.247Z,100935.92
2019-01-05T02:38:17.331Z,100936.58
2019-01-05T02:42:06.774Z,100928.41
2019-01-05T02:46:08.567Z,100919.69
2019-01-05T02:50:11.426Z,100916.56
2019-01-05T02:53:56.028Z,100906.34
2019-01-05T02:57:55.652Z,100903.14
2019-01-05T03:02:04.536Z,100887.10
2019-01-05T03:05:45.696Z,100883.45
2019-01-05T03:09:45.836Z,100881.44
2019-01-05T03:13:23.256Z,100880.63
2019-01-05T03:17:29.452Z,100876.12
2019-01-05T03:21:16.345Z,100864.73
2019-01-05T03:24:55.982Z,100861.03
2019-01-05T03:28:57.770Z,100858.40
2019-01-05T03:32:45.357Z,100852.91
2019-01-05T03:36:28.486Z,100839.33
2019-01-05T03:40:23.346Z,100832.95
2019-01-05T03:44:08.485Z,100811.13
2019-01-05T03:48:01.513Z,100810.11
2019-01-05T03:51:46.741Z,100800.88
2019-01-05T03:55:36.403Z,100802.92
2019-01-05T03:59:16.925Z,100789.64
2019-01-05T04:02:48.735Z,100793.88
2019-01-05T04:06:35.565Z,100791.95
2019-01-05T04:10:30.869Z,100781.44
2019-01-05T04:15:03.148Z,100776.80
2019-01-05T04:18:55.611Z,100765.03
2019-01-05T04:22:49.339Z,100768.72
2019-01-05T04:26:36.005Z,100758.41
2019-01-05T04:30:43.785Z,100749.16
2019-01-05T04:34:31.947Z,100755.59
2019-01-05T04:38:09.852Z,100751.58
2019-01-05T04:41:58.015Z,100745.44
2019-01-05T04:45:33.737Z,100733.13
2019-01-05T04:49:31.941Z,100730.62
2019-01-05T04:53:15.776Z,100728.67
2019-01-05T04:57:25.618Z,100729.78
2019-01-05T05:01:25.569Z,100723.88
2019-01-05T05:05:22.289Z,100721.37
2019-01-05T05:09:49.638Z,100710.93
2019-01-05T05:13:32.403Z,100718.95
2019-01-05T05:17:06.664Z,100720.91
2019-01-05T05:20:40.898Z,100712.02
2019-01-05T05:24:12.484Z,100713.97
2019-01-05T05:28:02.480Z,100709.53
2019-01-05T05:32:00.012Z,100709.14
2019-01-05T05:35:50.902Z,100706.19
2019-01-05T05:39:56.830Z,100717.06
2019-01-05T05:43:46.204Z,100713.62
2019-01-05T05:47:38.629Z,100704.27
2019-01-05T05:51:26.399Z,100704.89
2019-01-05T05:55:05.019Z,100711.00
2019-01-05T05:58:39.933Z,100712.14
2019-01-05T06:02:05.809Z,100706.08
2019-01-05T06:05:39.518Z,100713.42
2019-01-05T06:09:29.887Z,100719.33
2019-01-05T06:13:27.210Z,100716.34
2019-01-05T06:17:37.763Z,100721.25
2019-01-05T06:21:23.093Z,100719.61
2019-01-05T06:24:47.818Z,100720.08
2019-01-05T06:28:49.004Z,100723.53
2019-01-05T06:32:20.159Z,100723.32
2019-01-05T06:36:04.729Z,100719.00
2019-01-05T06:39:45.528Z,100730.70
2019-01-05T06:43:17.520Z,100732.73
2019-01-05T06:47:18.698Z,100717.17
2019-01-05T06:51:11.450Z,100715.64
2019-01-05T06:54:51.586Z,100708.60
2019-01-05T06:58:57.959Z,100714.23
2019-01-05T07:02:41.180Z,100721.84
2019-01-05T07:06:15.114Z,100725.89
2019-01-05T07:09:45.874Z,100727.23
2019-01-05T07:13:17.056Z,100728.16
2019-01-05T07:16:57.778Z,100736.55
2019-01-05T07:20:53.224Z,100739.16
2019-01-05T07:24:50.823Z,100741.25
2019-01-05T07:28:31.058Z,100746.14
2019-01-05T07:32:24.344Z,100745.08
2019-01-05T07:36:16.772Z,100740.38
2019-01-05T07:40:07.125Z,100745.80
2019-01-05T07:43:39.332Z,100746.55
2019-01-05T07:47:27.801Z,100750.30
2019-01-05T07:51:15.802Z,100751.39
2019-01-05T07:55:14.052Z,100749.22
2019-01-05T07:59:21.706Z,100756.73
2019-01-05T08:03:05.446Z,100745.08
2019-01-05T08:06:51.380Z,100758.00
2019-01-05T08:10:53.015Z,100758.77
2019-01-05T08:14:40.293Z,100751.64
2019-01-05T08:18:31.819Z,100764.16
2019-01-05T08:22:47.137Z,100760.22
2019-01-05T08:26:47.953Z,100771.17
2019-01-05T08:31:02.010Z,100771.80
2019-01-05T08:34:58.783Z,100768.16
2019-01-05T08:39:07.132Z,100769.00
2019-01-05T08:43:03.215Z,100767.16
2019-01-05T08:47:11.154Z,100775.73
2019-01-05T08:50:45.699Z,100785.86
2019-01-05T08:54:31.229Z,100794.90
2019-01-05T08:58:17.142Z,100795.69
2019-01-05T09:02:29.974Z,100800.03
2019-01-05T09:06:13.157Z,100794.91
2019-01-05T09:10:15.020Z,100803.25
2019-01-05T09:14:17.645Z,100804.18
2019-01-05T09:17:34.274Z,100798.73
2019-01-05T09:21:03.384Z,100818.13
2019-01-05T09:24:59.310Z,100814.84
2019-01-05T09:29:16.426Z,100825.83
2019-01-05T09:32:56.889Z,100820.66
2019-01-05T09:36:42.567Z,100832.01
2019-01-05T09:40:17.039Z,100827.63
2019-01-05T09:44:22.218Z,100829.16
2019-01-05T09:48:34.675Z,100833.37
2019-01-05T09:52:51.163Z,100829.35
2019-01-05T09:56:30.827Z,100839.59
2019-01-05T10:00:15.997Z,100843.66
2019-01-05T10:03:45.761Z,100845.19
2019-01-05T10:07:32.341Z,100848.13
2019-01-05T10:11:27.149Z,100824.88
2019-01-05T10:15:14.573Z,100824.08
2019-01-05T10:19:15.569Z,100829.97
2019-01-05T10:23:35.521Z,100840.28
2019-01-05T10:27:20.377Z,100849.80
2019-01-05T10:31:02.283Z,100839.91
2019-01-05T10:34:48.379Z,100837.14
2019-01-05T10:38:39.601Z,100844.34
2019-01-05T10:42:31.924Z,100824.83
2019-01-05T10:46:00.719Z,100836.25
2019-01-05T10:49:50.879Z,100837.91
2019-01-05T10:53:25.352Z,100832.27
2019-01-05T10:57:15.857Z,100832.61
2019-01-05T11:01:14.890Z,100844.53
2019-01-05T11:05:02.801Z,100841.92
2019-01-05T11:09:25.192Z,100836.74
2019-01-05T11:13:07.838Z,100838.78
2019-01-05T11:17:18.652Z,100838.46
2019-01-05T11:21:05.732Z,100843.72
2019-01-05T11:24:51.360Z,100843.91
2019-01-05T11:28:50.310Z,100850.78
2019-01-05T11:32:38.214Z,100852.69
2019-01-05T11:36:31.694Z,100844.86
2019-01-05T11:40:18.406Z,100840.52
2019-01-05T11:44:15.980Z,100845.34
2019-01-05T11:48:10.605Z,100850.83
2019-01-05T11:51:48.730Z,100855.72
2019-01-05T11:55:28.857Z,100847.36
2019-01-05T11:59:10.453Z,100838.67
2019-01-05T12:03:24.456Z,100847.13
2019-01-05T12:07:34.637Z,100848.03
2019-01-05T12:11:29.660Z,100849.29
2019-01-05T12:15:13.471Z,100860.62
2019-01-05T12:18:51.888Z,100856.80
2019-01-05T12:22:49.507Z,100851.62
2019-01-05T12:26:30.511Z,100864.18
2019-01-05T12:30:21.219Z,100864.22
2019-01-05T12:34:41.217Z,100867.95
2019-01-05T12:38:33.140Z,100867.50
2019-01-05T12:42:19.282Z,100876.71
2019-01-05T12:46:16.298Z,100881.30
2019-01-05T12:50:03.909Z,100880.44
2019-01-05T12:53:44.250Z,100880.04
2019-01-05T12:57:30.837Z,100883.30
2019-01-05T13:01:44.606Z,100891.84
2019-01-05T13:05:47.530Z,100883.97
2019-01-05T13:09:44.346Z,100889.59
2019-01-05T13:13:35.219Z,100894.00
2019-01-05T13:17:37.337Z,100895.11
2019-01-05T13:21:25.712Z,100903.92
2019-01-05T13:25:03.064Z,100910.73
2019-01-05T13:28:50.007Z,100920.09
2019-01-05T13:32:57.099Z,100918.50
2019-01-05T13:37:01.212Z,100913.17
2019-01-05T13:41:04.922Z,100919.61
2019-01-05T13:45:25.488Z,100923.55
2019-01-05T13:49:19.281Z,100929.67
2019-01-05T13:52:57.053Z,100939.09
2019-01-05T13:56:02.414Z,100938.87
2019-01-05T13:59:02.182Z,100945.17
2019-01-05T14:01:52.136Z,100950.47
2019-01-05T14:04:39.533Z,100958.27
2019-01-05T14:07:32.659Z,100950.28
2019-01-05T14:10:11.766Z,100955.44
2019-01-05T14:13:08.191Z,100959.13
2019-01-05T14:15:55.575Z,100960.24
2019-01-05T14:18:58.178Z,100950.41
2019-01-05T14:21:44.303Z,100951.63
2019-01-05T14:24:30.348Z,100948.02
2019-01-05T14:27:18.751Z,100953.09
2019-01-05T14:30:04.693Z,100960.58
2019-01-05T14:32:58.065Z,100965.20
2019-01-05T14:35:45.437Z,100965.66
2019-01-05T14:38:28.771Z,100950.26
2019-01-05T14:41:25.718Z,100961.08
2019-01-05T14:44:13.085Z,100960.29
2019-01-05T14:47:03.459Z,100964.55
2019-01-05T14:49:53.443Z,100956.16
2019-01-05T14:52:48.002Z,100955.61
2019-01-05T14:55:33.813Z,100959.34
2019-01-05T14:58:19.390Z,100967.23
2019-01-05T15:00:58.591Z,100968.97
2019-01-05T15:03:44.440Z,100971.31
2019-01-05T15:06:40.964Z,100969.39
2019-01-05T15:09:43.292Z,100967.93
2019-01-05T15:12:22.864Z,100971.38
2019-01-05T15:15:13.001Z,100978.44
2019-01-05T15:18:09.468Z,100984.53
2019-01-05T15:20:56.837Z,100987.87
2019-01-05T15:23:49.953Z,100985.66
2019-01-05T15:26:43.119Z,100985.98
2019-01-05T15:29:48.422Z,100996.02
2019-01-05T15:35:48.385Z,101000.27
2019-01-05T15:38:42.934Z,101004.18
2019-01-05T15:41:33.365Z,100999.95
2019-01-05T15:44:20.753Z,101000.80
2019-01-05T15:47:06.183Z,101004.89
2019-01-05T15:50:05.909Z,101012.22
2019-01-05T15:53:11.405Z,101015.31
2019-01-05T15:56:10.673Z,101009.34
2019-01-05T15:58:56.517Z,101004.55
2019-01-05T16:01:55.575Z,101009.17
2019-01-05T16:04:42.727Z,101013.23
2019-01-05T16:07:32.920Z,101020.97
2019-01-05T16:10:18.760Z,101023.73
2019-01-05T16:13:04.360Z,101026.89
2019-01-05T16:15:50.191Z,101033.41
2019-01-05T16:18:55.463Z,101034.58
2019-01-05T16:21:41.477Z,101037.48
2019-01-05T16:24:37.700Z,101046.50
2019-01-05T16:27:29.548Z,101059.77
2019-01-05T16:30:15.226Z,101053.34
2019-01-05T16:32:56.107Z,101059.62
2019-01-05T16:35:46.385Z,101062.64
2019-01-05T16:38:32.301Z,101061.42
2019-01-05T16:41:13.707Z,101061.49
2019-01-05T16:43:57.892Z,101063.61
2019-01-05T16:47:00.165Z,101065.73
2019-01-05T16:49:53.669Z,101063.64
2019-01-05T16:52:41.886Z,101062.67
2019-01-05T16:55:27.785Z,101058.34
2019-01-05T16:58:15.168Z,101053.06
2019-01-05T17:01:02.715Z,101052.03
2019-01-05T17:03:48.628Z,101052.88
2019-01-05T17:06:32.343Z,101045.31
2019-01-05T17:09:25.412Z,101042.16
2019-01-05T17:12:16.275Z,101038.89
2019-01-05T17:15:09.695Z,101041.02
2019-01-05T17:17:55.540Z,101029.80
2019-01-05T17:20:33.766Z,101027.58
2019-01-05T17:23:26.980Z,101036.41
2019-01-05T17:26:29.212Z,101043.53
2019-01-05T17:29:22.367Z,101046.39
2019-01-05T17:32:03.053Z,101049.93
2019-01-05T17:34:58.981Z,101048.34
2019-01-05T17:37:46.384Z,101046.78
2019-01-05T17:40:32.276Z,101045.44
2019-01-05T17:43:29.762Z,101043.81
2019-01-05T17:46:32.524Z,101050.25
2019-01-05T17:49:18.190Z,101054.47
2019-01-05T17:52:23.572Z,101049.91
2019-01-05T17:55:09.409Z,101058.67
2019-01-05T17:57:55.339Z,101062.13
2019-01-05T18:00:41.451Z,101065.53
2019-01-05T18:03:30.959Z,101069.31
2019-01-05T18:06:21.179Z,101070.52
2019-01-05T18:09:14.272Z,101075.05
2019-01-05T18:11:58.027Z,101061.42
2019-01-05T18:14:43.566Z,101073.50
2019-01-05T18:17:33.598Z,101073.22
2019-01-05T18:20:20.951Z,101072.88
2019-01-05T18:23:06.281Z,101072.38
2019-01-05T18:25:56.281Z,101068.72
2019-01-05T18:28:52.781Z,101072.05
2019-01-05T18:31:52.875Z,101074.21
2019-01-05T18:34:49.375Z,101071.20
2019-01-05T18:37:35.266Z,101077.94
2019-01-05T18:40:21.245Z,101069.97
2019-01-05T18:43:07.566Z,101069.97
2019-01-05T18:45:53.473Z,101064.39
2019-01-05T18:48:46.851Z,101068.13
2019-01-05T18:51:39.396Z,101071.41
2019-01-05T18:54:26.151Z,101067.08
2019-01-05T18:57:22.353Z,101067.65
2019-01-05T19:00:08.127Z,101071.84
2019-01-05T19:02:53.750Z,101072.55
2019-01-05T19:05:41.156Z,101064.58
2019-01-05T19:08:22.729Z,101068.61
2019-01-05T19:11:08.399Z,101066.28
2019-01-05T19:13:54.495Z,101065.55
2019-01-05T19:16:40.102Z,101064.08
2019-01-05T19:19:39.632Z,101073.78
2019-01-05T19:22:29.830Z,101074.63
2019-01-05T19:25:29.291Z,101076.16
2019-01-05T19:28:15.085Z,101083.42
2019-01-05T19:31:02.481Z,101085.74
2019-01-05T19:33:48.269Z,101091.69
2019-01-05T19:36:53.845Z,101086.14
2019-01-05T19:39:41.254Z,101079.48
2019-01-05T19:42:27.032Z,101088.51
2019-01-05T19:45:17.395Z,101098.74
2019-01-05T19:48:22.935Z,101089.27
2019-01-05T19:51:10.346Z,101093.70
2019-01-05T19:53:56.634Z,101094.66
2019-01-05T19:56:46.892Z,101100.24
2019-01-05T19:59:28.600Z,101106.27
2019-01-05T20:02:09.281Z,101107.15
2019-01-05T20:04:56.963Z,101112.63
2019-01-05T20:07:47.086Z,101111.47
2019-01-05T20:10:49.181Z,101109.92
2019-01-05T20:13:48.185Z,101113.52
2019-01-05T20:16:47.613Z,101125.86
2019-01-05T20:19:33.381Z,101128.66
2019-01-05T20:22:20.775Z,101130.30
2019-01-05T20:25:06.593Z,101122.20
2019-01-05T20:27:56.989Z,101120.55
2019-01-05T20:30:50.223Z,101130.40
2019-01-05T20:33:44.798Z,101127.08
2019-01-05T20:36:38.311Z,101131.92
2019-01-05T20:39:27.031Z,101133.92
2019-01-05T20:42:14.454Z,101132.56
2019-01-05T20:45:00.395Z,101135.21
2019-01-05T20:48:02.899Z,101137.16
2019-01-05T20:50:53.048Z,101136.97
2019-01-05T20:53:40.485Z,101139.23
2019-01-05T20:56:45.560Z,101140.44
2019-01-05T20:59:29.020Z,101139.34
2019-01-05T21:02:16.445Z,101142.34
2019-01-05T21:05:19.030Z,101143.55
2019-01-05T21:08:04.820Z,101150.61
2019-01-05T21:11:01.352Z,101153.16
2019-01-05T21:14:03.688Z,101150.52
2019-01-05T21:17:02.952Z,101150.02
2019-01-05T21:19:56.275Z,101153.05
2019-01-05T21:22:52.711Z,101161.90
2019-01-05T21:25:40.630Z,101161.05
2019-01-05T21:28:26.258Z,101160.20
2019-01-05T21:31:25.947Z,101162.04
2019-01-05T21:34:13.491Z,101165.84
2019-01-05T21:37:06.996Z,101168.77
2019-01-05T21:39:57.562Z,101174.30
2019-01-05T21:42:48.207Z,101176.84
2019-01-05T21:45:38.477Z,101179.20
2019-01-05T21:48:29.020Z,101184.25
2019-01-05T21:51:28.453Z,101192.13
2019-01-05T21:54:23.174Z,101190.77
2019-01-05T21:57:10.726Z,101191.12
2019-01-05T22:00:16.055Z,101198.30
2019-01-05T22:03:01.629Z,101203.34
2019-01-05T22:05:51.931Z,101209.53
2019-01-05T22:08:48.162Z,101212.20
2019-01-05T22:11:33.960Z,101210.39
2019-01-05T22:14:15.519Z,101213.05
2019-01-05T22:17:14.582Z,101213.72
2019-01-05T22:20:00.366Z,101221.91
2019-01-05T22:22:37.855Z,101221.08
2019-01-05T22:25:24.035Z,101225.94
2019-01-05T22:28:10.002Z,101222.23
2019-01-05T22:30:55.523Z,101215.22
2019-01-05T22:33:41.619Z,101218.73
2019-01-05T22:36:25.923Z,101221.08
2019-01-05T22:39:14.901Z,101213.70
2019-01-05T22:42:05.263Z,101216.07
2019-01-05T22:44:55.679Z,101214.89
2019-01-05T22:47:41.535Z,101215.05
2019-01-05T22:50:27.568Z,101224.73
2019-01-05T22:53:21.189Z,101222.06
2019-01-05T22:56:14.057Z,101231.59
2019-01-05T22:58:59.669Z,101234.41
2019-01-05T23:02:05.167Z,101232.71
2019-01-05T23:04:55.072Z,101240.08
2019-01-05T23:08:00.351Z,101240.04
2019-01-05T23:10:49.793Z,101242.55
2019-01-05T23:13:37.928Z,101242.50
2019-01-05T23:16:25.511Z,101242.77
2019-01-05T23:19:15.965Z,101242.45
2019-01-05T23:22:01.694Z,101247.96
2019-01-05T23:25:03.627Z,101246.91
2019-01-05T23:27:51.018Z,101257.27
2019-01-05T23:30:38.772Z,101252.99
2019-01-05T23:33:36.436Z,101253.30
2019-01-05T23:36:24.283Z,101257.48
2019-01-05T23:39:15.660Z,101252.47
2019-01-05T23:42:09.552Z,101257.33
2019-01-05T23:44:59.954Z,101256.00
2019-01-05T23:48:02.209Z,101255.52
2019-01-05T23:50:47.998Z,101266.55
2019-01-05T23:53:34.172Z,101259.52
2019-01-05T23:56:34.582Z,101267.89
2019-01-05T23:59:41.808Z,101271.71
